Rochester International Airport
KRST : now visible

Airfield :











YOU CAN JOIN US ON...

 
LOGIN :

Register | Disclaimer

   EN    FR    IT 

 









Legend :    VFR   Marginal VFR   IFR   Intensive IFR   Very Intensive IFR
Visi :
Ceiling :
>= 8 km
>= 3000ft
5 to 8 km
1000 to 3000 ft
1500m to 5 km
500 to 1000 ft
800 to 1500m
200 to 500 ft
< 800m
< 200 ft
Symbols :   Thunderstorms  Fog  Heavy snow  Heavy precipitations  Wind > 20 kt






- Airport Elevation : 1317 ft
- IATA code : RST


KRST - Rochester International

CURRENT METAR :
  • 190354Z 29024G31KT 10SM CLR M20/M23 A3007 RMK AO2 PK WND 30032/0306 SLP215 T12001233 $

EXPIRED METARs :
  • 190254Z 29024G32KT 10SM CLR M19/M23 A3005 RMK AO2 PK WND 30036/0155 SLP205 60000 I1000 I3000 T11941233 51022 $
  • 190206Z 30022G32KT 10SM SCT017 M19/M23 A3005 RMK AO2 PK WND 30036/0155 T11941233 $

TAF KRST
Valid from the 19 at 02:00 until the 20 at 00:00 UTC


190201Z 1902/1924 29023G34KT 6SM BLSN SCT015
TEMPO 1902/1903 BKN015
FM190600 30022G32KT P6SM BKN020
FM190900 30018G24KT P6SM BKN012
FM192000 30012KT P6SM BKN030



MET'MAP, your aeronautical weather chart ! - Copyright ORBIFLY December 2007 - Disclaimer

ORBIFLY MET'MAP TEAM :

Programming & Development : Alexandra Zaïnal
Concept & original design : Baudouin d'Aumeries
Assistance for programming : Marc-Olivier Méhu
Technical & hardware support : Manuel Goepfert

Contact : metmap@orbifly.com




SOURCES & CREDITS :

   NOAA       Earth
Advisory